Time;durP1;ratioP1;P1;durP2;ratioP2;P2;SDS_P1;SDS_P2;PMS_P1;PMS_P2;Temp;Humidity;BMP_temperature;BMP_pressure;BME280_temperature;BME280_humidity;BME280_pressure;Samples;Min_cycle;Max_cycle;Signal;HPM_P1;HPM_P2
2024/02/06 00:02:21;;;;;;;2.80;1.50;;;;;;;7.93;70.75;96036.77;108568;1274;22667;-73
2024/02/06 00:04:49;;;;;;;6.80;1.90;;;;;;;7.87;70.86;96033.21;108583;1274;22522;-73
2024/02/06 00:07:17;;;;;;;4.90;2.10;;;;;;;7.87;70.61;96034.75;108519;1267;22631;-73
2024/02/06 00:09:46;;;;;;;3.50;1.80;;;;;;;7.93;69.96;96028.70;108637;1274;22674;-73
2024/02/06 00:12:14;;;;;;;3.00;1.30;;;;;;;7.96;69.85;96032.31;108552;1270;23081;-73
2024/02/06 00:14:42;;;;;;;6.20;1.70;;;;;;;7.93;70.04;96031.70;108665;1274;22538;-73
2024/02/06 00:17:11;;;;;;;4.70;1.70;;;;;;;7.87;70.23;96033.16;108627;1267;22524;-73
2024/02/06 00:19:39;;;;;;;2.80;1.40;;;;;;;7.84;70.17;96039.15;108605;1274;22481;-73
2024/02/06 00:22:07;;;;;;;4.70;2.10;;;;;;;7.86;69.90;96034.48;108614;1274;22520;-73
2024/02/06 00:24:35;;;;;;;4.00;2.30;;;;;;;7.85;69.93;96036.49;108660;1270;25403;-73
2024/02/06 00:27:03;;;;;;;7.20;2.30;;;;;;;7.83;70.02;96038.20;108625;1268;22972;-73
2024/02/06 00:29:32;;;;;;;6.30;2.20;;;;;;;7.78;70.19;96031.33;108599;1266;23081;-73
2024/02/06 00:32:00;;;;;;;4.40;1.90;;;;;;;7.77;69.97;96035.04;108628;1274;22578;-73
2024/02/06 00:34:28;;;;;;;6.10;2.00;;;;;;;7.74;70.07;96034.24;108633;1274;23743;-73
2024/02/06 00:36:56;;;;;;;7.60;2.80;;;;;;;7.70;69.95;96039.77;108618;1274;23394;-73
2024/02/06 00:39:25;;;;;;;6.90;2.00;;;;;;;7.69;69.84;96038.55;108642;1274;22523;-72
2024/02/06 00:41:53;;;;;;;7.70;2.00;;;;;;;7.70;69.77;96037.54;108571;1274;24403;-73
2024/02/06 00:44:21;;;;;;;5.50;1.50;;;;;;;7.64;70.04;96036.70;108586;1274;24242;-73
2024/02/06 00:46:49;;;;;;;6.80;1.60;;;;;;;7.60;69.82;96046.73;108613;1269;22615;-72
2024/02/06 00:49:18;;;;;;;4.30;1.50;;;;;;;7.56;70.10;96040.05;108589;1274;23235;-73
2024/02/06 00:51:46;;;;;;;4.40;1.60;;;;;;;7.51;70.12;96041.14;108572;1274;22526;-73
2024/02/06 00:54:14;;;;;;;11.40;1.90;;;;;;;7.50;70.14;96038.79;108665;1269;25229;-73
2024/02/06 00:56:42;;;;;;;6.20;1.50;;;;;;;7.47;70.26;96042.55;108630;1269;22537;-73
2024/02/06 00:59:11;;;;;;;4.00;1.70;;;;;;;7.40;70.52;96032.80;108646;1274;25287;-73
2024/02/06 01:01:39;;;;;;;5.40;2.10;;;;;;;7.36;70.42;96027.83;108627;1269;22535;-73
2024/02/06 01:04:07;;;;;;;2.80;1.80;;;;;;;7.35;70.66;96026.26;108603;1274;25327;-73
2024/02/06 01:06:35;;;;;;;5.30;1.50;;;;;;;7.37;70.45;96019.54;108626;1254;25987;-73
2024/02/06 01:09:04;;;;;;;5.00;1.50;;;;;;;7.41;70.02;96022.14;108563;1274;24789;-73
2024/02/06 01:11:32;;;;;;;5.90;2.60;;;;;;;7.42;69.95;96024.35;108547;1274;22602;-73
2024/02/06 01:14:00;;;;;;;2.80;0.80;;;;;;;7.41;69.93;96026.58;108639;1266;22527;-73
2024/02/06 01:16:28;;;;;;;5.90;1.50;;;;;;;7.42;69.95;96024.98;108554;1269;22548;-73
2024/02/06 01:18:57;;;;;;;2.80;1.20;;;;;;;7.39;69.93;96021.64;108590;1274;22544;-73
2024/02/06 01:21:25;;;;;;;7.60;3.40;;;;;;;7.35;69.85;96019.55;108600;1274;22524;-73
2024/02/06 01:23:53;;;;;;;5.30;1.70;;;;;;;7.35;69.78;96019.04;108739;1267;22516;-73
2024/02/06 01:26:21;;;;;;;2.60;1.30;;;;;;;7.35;69.60;96017.29;108704;1268;22528;-73
2024/02/06 01:28:49;;;;;;;8.10;1.90;;;;;;;7.35;69.75;96024.66;108719;1269;22521;-73
2024/02/06 01:31:18;;;;;;;4.30;1.80;;;;;;;7.28;69.82;96021.95;108640;1270;22519;-73
2024/02/06 01:33:46;;;;;;;7.00;2.00;;;;;;;7.25;70.01;96019.86;108609;1270;22524;-73
2024/02/06 01:36:14;;;;;;;6.20;1.80;;;;;;;7.22;69.81;96012.77;108527;1269;22544;-73
2024/02/06 01:38:42;;;;;;;4.20;1.40;;;;;;;7.25;69.62;96007.36;108613;1274;22562;-73
2024/02/06 01:41:10;;;;;;;6.00;1.70;;;;;;;7.28;69.36;96007.55;108675;1274;22530;-72
2024/02/06 01:43:39;;;;;;;5.60;1.50;;;;;;;7.27;69.51;96002.40;108662;1274;22521;-72
2024/02/06 01:46:07;;;;;;;8.60;1.60;;;;;;;7.22;69.46;95992.25;108724;1274;24730;-73
2024/02/06 01:48:37;;;;;;;4.80;2.80;;;;;;;7.20;69.68;95999.59;108719;1266;25363;-73
2024/02/06 01:51:07;;;;;;;9.00;1.30;;;;;;;7.14;69.93;95996.91;108607;1274;22637;-72
2024/02/06 01:53:35;;;;;;;4.20;1.20;;;;;;;7.13;69.79;95990.59;108653;1269;25338;-72
2024/02/06 01:56:05;;;;;;;4.40;1.50;;;;;;;7.16;69.80;95991.84;108597;1274;22542;-72
2024/02/06 01:58:32;;;;;;;;;;;;;;;7.11;69.69;95982.59;108680;1274;22505;-72
2024/02/06 02:01:02;;;;;;;2.80;1.50;;;;;;;7.14;69.57;95983.38;108577;1268;22524;-72
2024/02/06 02:03:32;;;;;;;4.40;1.30;;;;;;;7.11;69.64;95984.70;108635;1274;22675;-72
2024/02/06 02:06:00;;;;;;;4.00;1.60;;;;;;;7.06;70.06;95986.00;108617;1274;24309;-73
2024/02/06 02:08:33;;;;;;;5.80;1.50;;;;;;;7.01;70.13;95978.69;108646;1268;22575;-72
2024/02/06 02:11:03;;;;;;;4.30;2.10;;;;;;;7.01;70.08;95973.88;108603;1269;22520;-72
2024/02/06 02:13:31;;;;;;;3.30;1.40;;;;;;;7.05;70.01;95973.52;108628;1250;22537;-72
2024/02/06 02:16:00;;;;;;;3.40;1.30;;;;;;;7.10;70.00;95976.48;108596;1274;24979;-73
2024/02/06 02:18:32;;;;;;;5.30;1.70;;;;;;;7.11;69.83;95977.28;108616;1274;22484;-73
2024/02/06 02:21:05;;;;;;;7.20;2.10;;;;;;;7.12;69.66;95983.96;108584;1274;23933;-73
2024/02/06 02:23:33;;;;;;;4.70;2.00;;;;;;;7.13;69.46;95984.33;108655;1270;22520;-72
2024/02/06 02:26:01;;;;;;;4.30;1.50;;;;;;;7.10;69.58;95972.42;108665;1274;22523;-72
2024/02/06 02:28:30;;;;;;;4.00;1.50;;;;;;;7.11;69.54;95977.58;108562;1274;22524;-72
2024/02/06 02:30:58;;;;;;;7.90;1.40;;;;;;;7.10;69.45;95977.16;108639;1269;25499;-72
2024/02/06 02:33:27;;;;;;;6.00;1.90;;;;;;;7.13;69.35;95975.89;108651;1274;24487;-73
2024/02/06 02:35:55;;;;;;;4.70;2.00;;;;;;;7.17;68.93;95969.55;108634;1274;22549;-73
2024/02/06 02:38:24;;;;;;;4.50;1.70;;;;;;;7.21;68.38;95955.73;108684;1274;22538;-73
2024/02/06 02:40:52;;;;;;;5.30;1.80;;;;;;;7.22;68.32;95963.36;108588;1274;23334;-72
2024/02/06 02:43:20;;;;;;;6.80;1.70;;;;;;;7.26;68.10;95971.40;108581;1274;24218;-73
2024/02/06 02:45:48;;;;;;;4.90;1.50;;;;;;;7.26;68.06;95975.83;108614;1274;26329;-72
2024/02/06 02:48:17;;;;;;;2.30;1.30;;;;;;;7.26;67.79;95969.86;108608;1273;24251;-73
2024/02/06 02:50:45;;;;;;;4.50;2.00;;;;;;;7.24;68.04;95975.95;108638;1274;22550;-73
2024/02/06 02:53:13;;;;;;;4.60;1.40;;;;;;;7.23;67.79;95975.90;108623;1266;23173;-73
2024/02/06 02:55:42;;;;;;;6.30;1.70;;;;;;;7.23;67.65;95981.70;108618;1274;24353;-72
2024/02/06 02:58:10;;;;;;;4.50;2.10;;;;;;;7.17;67.96;95984.41;108608;1266;24191;-72
2024/02/06 03:00:39;;;;;;;8.80;1.90;;;;;;;7.10;68.08;95990.35;108588;1269;22550;-73
2024/02/06 03:03:07;;;;;;;6.30;1.80;;;;;;;7.05;68.30;95990.38;108655;1269;23197;-73
2024/02/06 03:05:37;;;;;;;5.80;1.80;;;;;;;7.05;68.27;95987.38;108641;1274;22547;-74
2024/02/06 03:08:06;;;;;;;4.90;1.60;;;;;;;7.03;68.41;95985.60;108588;1274;22621;-72
2024/02/06 03:10:34;;;;;;;4.20;1.30;;;;;;;6.94;68.44;95983.04;108616;1274;23325;-73
2024/02/06 03:13:02;;;;;;;7.20;1.60;;;;;;;6.87;68.44;95980.80;108610;1274;22538;-73
2024/02/06 03:15:30;;;;;;;10.90;2.20;;;;;;;6.82;68.83;95978.77;108584;1266;25348;-72
2024/02/06 03:17:59;;;;;;;9.70;2.00;;;;;;;6.75;68.95;95980.38;108621;1274;24174;-72
2024/02/06 03:20:27;;;;;;;4.50;1.50;;;;;;;6.72;68.94;95968.77;108608;1274;22525;-72
2024/02/06 03:22:55;;;;;;;7.20;1.50;;;;;;;6.76;69.06;95972.02;108606;1274;22609;-73
2024/02/06 03:25:23;;;;;;;4.40;1.60;;;;;;;6.76;68.92;95972.73;108619;1274;25484;-72
2024/02/06 03:27:52;;;;;;;6.40;2.20;;;;;;;6.73;68.81;95973.25;108605;1270;22550;-73
2024/02/06 03:30:20;;;;;;;4.60;1.80;;;;;;;6.77;68.45;95966.25;108575;1274;25329;-72
2024/02/06 03:32:48;;;;;;;4.70;1.50;;;;;;;6.77;68.44;95967.58;108666;1274;25376;-73
2024/02/06 03:35:16;;;;;;;7.40;1.90;;;;;;;6.72;68.57;95968.11;108654;1274;22532;-72
2024/02/06 03:37:45;;;;;;;5.20;1.70;;;;;;;6.63;68.67;95962.55;108605;1274;22532;-72
2024/02/06 03:40:13;;;;;;;3.70;2.00;;;;;;;6.52;68.93;95961.54;108617;1274;25507;-73
2024/02/06 03:42:41;;;;;;;2.60;1.10;;;;;;;6.47;69.25;95963.29;108648;1274;22539;-72
2024/02/06 03:45:13;;;;;;;5.50;1.50;;;;;;;6.43;69.36;95957.08;108624;1269;22544;-73
2024/02/06 03:47:47;;;;;;;4.10;1.40;;;;;;;6.41;69.40;95957.34;108658;1274;22633;-73
2024/02/06 03:50:16;;;;;;;3.60;1.40;;;;;;;6.47;69.30;95955.01;108585;1274;22525;-73
2024/02/06 03:52:45;;;;;;;2.20;1.20;;;;;;;6.48;69.55;95949.01;108589;1274;22657;-73
2024/02/06 03:55:13;;;;;;;8.50;1.30;;;;;;;6.46;69.37;95955.70;108655;1267;24275;-73
2024/02/06 03:57:42;;;;;;;7.50;1.70;;;;;;;6.37;69.37;95955.25;108616;1274;22547;-72
2024/02/06 04:00:13;;;;;;;6.40;1.70;;;;;;;6.32;69.52;95952.41;108581;1274;22558;-73
2024/02/06 04:02:42;;;;;;;4.70;1.50;;;;;;;6.31;69.73;95951.31;108673;1274;22531;-72
2024/02/06 04:05:10;;;;;;;5.10;2.00;;;;;;;6.30;69.84;95951.05;108595;1266;24494;-72
2024/02/06 04:07:38;;;;;;;7.70;2.70;;;;;;;6.28;69.88;95941.48;108644;1274;22606;-73
2024/02/06 04:10:09;;;;;;;5.30;1.60;;;;;;;6.27;69.93;95942.06;108636;1274;22540;-73
2024/02/06 04:12:37;;;;;;;5.30;2.00;;;;;;;6.27;69.90;95942.33;108667;1274;22565;-73
2024/02/06 04:15:08;;;;;;;5.70;2.00;;;;;;;6.27;70.06;95947.42;108644;1274;22757;-73
2024/02/06 04:17:37;;;;;;;3.60;1.70;;;;;;;6.22;69.95;95948.30;108674;1274;22535;-73
2024/02/06 04:20:07;;;;;;;3.50;1.50;;;;;;;6.18;70.07;95943.59;108628;1274;22524;-73
2024/02/06 04:22:35;;;;;;;5.10;1.40;;;;;;;6.15;70.12;95941.55;108613;1274;22550;-73
2024/02/06 04:25:04;;;;;;;4.60;1.60;;;;;;;6.17;70.08;95940.55;108602;1270;22518;-73
2024/02/06 04:27:34;;;;;;;4.10;1.70;;;;;;;6.19;70.16;95944.59;108741;1269;24215;-73
2024/02/06 04:30:04;;;;;;;3.40;1.60;;;;;;;6.21;70.05;95938.88;108706;1274;23311;-73
2024/02/06 04:32:32;;;;;;;7.60;1.90;;;;;;;6.23;69.96;95945.34;108593;1274;22551;-73
2024/02/06 04:35:01;;;;;;;4.20;2.40;;;;;;;6.26;70.12;95944.43;108601;1266;22523;-72
2024/02/06 04:37:29;;;;;;;6.00;1.60;;;;;;;6.28;69.90;95944.79;108646;1273;24266;-72
2024/02/06 04:39:57;;;;;;;7.50;2.00;;;;;;;6.29;69.84;95943.20;108596;1274;22693;-72
2024/02/06 04:42:25;;;;;;;8.30;2.00;;;;;;;6.28;69.69;95947.48;108560;1274;22528;-73
2024/02/06 04:44:54;;;;;;;5.80;2.20;;;;;;;6.28;69.78;95952.59;108638;1269;24244;-73
2024/02/06 04:47:22;;;;;;;8.90;2.20;;;;;;;6.23;69.60;95950.81;108600;1267;22518;-73
2024/02/06 04:49:50;;;;;;;4.60;2.10;;;;;;;6.21;69.53;95953.04;108618;1274;22645;-73
2024/02/06 04:52:18;;;;;;;4.60;2.00;;;;;;;6.17;69.66;95953.44;108584;1273;22533;-73
2024/02/06 04:54:46;;;;;;;3.10;1.90;;;;;;;6.12;69.57;95951.98;108613;1274;22710;-73
2024/02/06 04:57:14;;;;;;;6.40;1.90;;;;;;;6.09;69.59;95953.89;108616;1274;22549;-73
2024/02/06 04:59:42;;;;;;;6.90;2.30;;;;;;;6.07;69.68;95954.27;108593;1274;24335;-73
2024/02/06 05:02:10;;;;;;;3.80;2.00;;;;;;;6.04;69.57;95955.36;108552;1274;23388;-73
2024/02/06 05:04:39;;;;;;;4.20;1.90;;;;;;;5.98;69.60;95948.16;108615;1274;25422;-74
2024/02/06 05:07:07;;;;;;;6.40;2.20;;;;;;;5.92;69.79;95958.22;108618;1274;25287;-73
2024/02/06 05:09:35;;;;;;;7.30;1.90;;;;;;;5.89;69.82;95954.50;108648;1274;22523;-73
2024/02/06 05:12:06;;;;;;;5.80;1.90;;;;;;;5.91;69.86;95954.21;108558;1274;23090;-73
2024/02/06 05:14:34;;;;;;;5.60;2.00;;;;;;;5.87;69.88;95951.76;108708;1270;24231;-73
2024/02/06 05:17:03;;;;;;;5.30;2.00;;;;;;;5.88;69.87;95952.55;108601;1274;24219;-73
2024/02/06 05:19:31;;;;;;;4.50;2.10;;;;;;;5.88;69.73;95956.86;108522;1270;25316;-73
2024/02/06 05:22:00;;;;;;;6.20;2.20;;;;;;;5.84;69.74;95955.50;108637;1270;22524;-73
2024/02/06 05:24:29;;;;;;;5.60;2.10;;;;;;;5.78;69.74;95956.83;108634;1274;23339;-73
2024/02/06 05:26:57;;;;;;;6.30;3.10;;;;;;;5.74;69.93;95957.44;108636;1270;22523;-73
2024/02/06 05:29:25;;;;;;;7.50;3.30;;;;;;;5.72;70.11;95959.77;108608;1267;22666;-73
2024/02/06 05:31:53;;;;;;;7.00;2.80;;;;;;;5.66;70.12;95953.92;108635;1274;22548;-72
2024/02/06 05:34:21;;;;;;;6.90;2.80;;;;;;;5.61;70.01;95960.59;108592;1274;22592;-73
2024/02/06 05:36:49;;;;;;;4.70;1.70;;;;;;;5.58;70.34;95960.48;108619;1274;22537;-73
2024/02/06 05:39:18;;;;;;;7.30;2.10;;;;;;;5.61;70.29;95961.27;108609;1272;23304;-73
2024/02/06 05:41:46;;;;;;;7.00;2.50;;;;;;;5.59;70.43;95966.33;108589;1267;25443;-73
2024/02/06 05:44:15;;;;;;;5.10;1.90;;;;;;;5.54;70.41;95966.80;108606;1274;22591;-73
2024/02/06 05:46:43;;;;;;;2.90;1.20;;;;;;;5.59;70.61;95967.42;108584;1272;22517;-73
2024/02/06 05:49:11;;;;;;;4.40;2.00;;;;;;;5.65;70.31;95967.08;108620;1274;22540;-74
2024/02/06 05:51:39;;;;;;;5.20;1.80;;;;;;;5.62;70.17;95970.70;108606;1274;24248;-73
2024/02/06 05:54:07;;;;;;;8.40;2.50;;;;;;;5.51;70.24;95965.53;108670;1274;22528;-73
2024/02/06 05:56:36;;;;;;;6.20;2.00;;;;;;;5.50;70.58;95969.27;108645;1266;22523;-73
2024/02/06 05:59:04;;;;;;;8.00;2.50;;;;;;;5.65;70.37;95963.49;108635;1274;24213;-73
2024/02/06 06:01:32;;;;;;;6.40;2.80;;;;;;;5.67;70.26;95965.70;108588;1269;22588;-73
2024/02/06 06:04:00;;;;;;;7.30;1.90;;;;;;;5.54;70.20;95963.02;108658;1269;22554;-73
2024/02/06 06:06:28;;;;;;;7.40;2.30;;;;;;;5.53;70.31;95961.39;108643;1274;22528;-73
2024/02/06 06:08:56;;;;;;;5.60;1.90;;;;;;;5.60;70.38;95961.80;108638;1250;22547;-73
2024/02/06 06:11:24;;;;;;;5.80;2.30;;;;;;;5.68;70.11;95965.02;108549;1272;22734;-74
2024/02/06 06:13:53;;;;;;;6.80;2.10;;;;;;;5.67;70.05;95972.97;108653;1266;22547;-73
2024/02/06 06:16:21;;;;;;;10.10;2.10;;;;;;;5.54;70.08;95968.06;108612;1274;22576;-73
2024/02/06 06:18:50;;;;;;;6.10;2.00;;;;;;;5.47;70.14;95970.09;108592;1272;25316;-73
2024/02/06 06:21:18;;;;;;;5.90;2.00;;;;;;;5.48;70.48;95976.09;108641;1269;22528;-73
2024/02/06 06:23:46;;;;;;;10.20;2.80;;;;;;;5.50;70.28;95973.80;108623;1270;23848;-73
2024/02/06 06:26:14;;;;;;;4.10;2.00;;;;;;;5.50;70.55;95978.16;108608;1272;25234;-73
2024/02/06 06:28:42;;;;;;;7.00;2.70;;;;;;;5.52;70.46;95978.42;108658;1272;25092;-73
2024/02/06 06:31:11;;;;;;;5.80;2.80;;;;;;;5.44;70.37;95979.40;108684;1272;23044;-73
2024/02/06 06:33:39;;;;;;;7.70;2.70;;;;;;;5.38;70.64;95985.02;108631;1272;24505;-73
2024/02/06 06:36:08;;;;;;;7.30;2.50;;;;;;;5.41;70.74;95992.76;108606;1266;24252;-73
2024/02/06 06:38:36;;;;;;;;;;;;;;;5.52;70.71;95995.09;108630;1274;22514;-73
2024/02/06 06:41:04;;;;;;;8.30;2.60;;;;;;;5.62;70.81;95998.45;108606;1272;25515;-73
2024/02/06 06:43:32;;;;;;;4.30;2.10;;;;;;;5.64;70.80;96003.55;108644;1272;24306;-73
2024/02/06 06:46:01;;;;;;;9.30;2.40;;;;;;;5.70;70.91;96006.46;108598;1267;22534;-74
2024/02/06 06:48:33;;;;;;;3.20;1.70;;;;;;;5.81;70.88;96004.95;108669;1274;22565;-74
2024/02/06 06:51:01;;;;;;;8.00;2.30;;;;;;;5.96;70.89;96011.30;108607;1274;22521;-74
2024/02/06 06:53:31;;;;;;;6.00;2.30;;;;;;;6.12;70.82;96007.08;108557;1272;22812;-75
2024/02/06 06:56:00;;;;;;;6.20;2.80;;;;;;;6.20;70.66;96011.88;108477;1274;175332;-75
2024/02/06 06:58:29;;;;;;;7.40;2.80;;;;;;;6.26;70.79;96011.55;108555;1259;22524;-74
2024/02/06 07:00:57;;;;;;;6.10;2.50;;;;;;;6.39;70.87;96013.80;108579;1274;22525;-74
2024/02/06 07:03:25;;;;;;;10.50;2.80;;;;;;;6.56;70.78;96013.66;108583;1274;25395;-74
2024/02/06 07:05:54;;;;;;;5.00;1.90;;;;;;;6.63;70.59;96016.98;108590;1270;22698;-74
2024/02/06 07:08:22;;;;;;;7.30;2.10;;;;;;;6.67;70.52;96017.80;108617;1272;25531;-74
2024/02/06 07:10:51;;;;;;;5.10;2.10;;;;;;;6.70;70.34;96014.47;108654;1274;22539;-74
2024/02/06 07:13:19;;;;;;;5.50;2.20;;;;;;;6.71;70.20;96017.26;108665;1271;22603;-74
2024/02/06 07:15:47;;;;;;;6.00;2.40;;;;;;;6.74;69.83;96018.14;108649;1266;22538;-75
2024/02/06 07:18:16;;;;;;;7.50;2.80;;;;;;;6.76;69.75;96019.80;108632;1266;22603;-74
2024/02/06 07:20:44;;;;;;;4.90;1.90;;;;;;;6.77;69.49;96018.79;108554;1272;22563;-74
2024/02/06 07:23:12;;;;;;;5.30;1.90;;;;;;;6.81;69.59;96019.14;108682;1274;25345;-74
2024/02/06 07:25:40;;;;;;;5.90;2.00;;;;;;;6.83;69.43;96016.02;108649;1274;22516;-74
2024/02/06 07:28:09;;;;;;;4.60;2.00;;;;;;;6.87;69.16;96009.67;108687;1274;27694;-74
2024/02/06 07:30:37;;;;;;;7.20;2.50;;;;;;;6.91;68.78;96012.05;108634;1269;22514;-74
2024/02/06 07:33:05;;;;;;;3.60;1.80;;;;;;;6.93;68.19;96008.30;108654;1266;22734;-74
2024/02/06 07:35:34;;;;;;;5.10;2.10;;;;;;;6.94;67.15;96018.94;108663;1274;22519;-74
2024/02/06 07:38:03;;;;;;;5.90;2.00;;;;;;;6.93;66.86;96020.26;108638;1274;22830;-74
2024/02/06 07:40:31;;;;;;;6.50;1.90;;;;;;;6.91;66.16;96015.42;108619;1274;22538;-73
2024/02/06 07:43:00;;;;;;;8.50;2.50;;;;;;;6.90;65.99;96020.21;108672;1271;22511;-74
2024/02/06 07:45:28;;;;;;;5.00;2.10;;;;;;;6.89;66.42;96020.30;108707;1270;26292;-73
2024/02/06 07:47:56;;;;;;;6.30;2.80;;;;;;;6.88;66.06;96016.15;108685;1269;22611;-73
2024/02/06 07:50:25;;;;;;;6.50;1.90;;;;;;;6.83;66.34;96025.80;108760;1274;22620;-74
2024/02/06 07:52:53;;;;;;;6.60;1.80;;;;;;;6.80;66.12;96026.15;108745;1274;26602;-74
2024/02/06 07:55:21;;;;;;;9.10;2.20;;;;;;;6.77;66.36;96037.02;108712;1274;22525;-74
2024/02/06 07:57:49;;;;;;;5.00;2.10;;;;;;;6.76;66.31;96028.58;108781;1274;25274;-73
2024/02/06 08:00:20;;;;;;;4.40;1.60;;;;;;;6.75;65.98;96019.61;108682;1272;22547;-73
2024/02/06 08:02:48;;;;;;;5.20;2.20;;;;;;;6.74;65.86;96024.14;108860;1274;25253;-74
2024/02/06 08:05:16;;;;;;;6.50;2.20;;;;;;;6.73;65.90;96034.48;108771;1272;22601;-74
2024/02/06 08:07:45;;;;;;;8.00;2.60;;;;;;;6.73;66.06;96034.53;108703;1267;24310;-73
2024/02/06 08:10:14;;;;;;;9.20;2.60;;;;;;;6.74;66.33;96039.32;108463;1269;22521;-74
2024/02/06 08:12:42;;;;;;;6.70;2.80;;;;;;;6.74;66.75;96043.05;108657;1272;22524;-73
2024/02/06 08:15:10;;;;;;;6.60;2.40;;;;;;;6.78;67.01;96040.38;108670;1272;22567;-73
2024/02/06 08:17:42;;;;;;;11.20;3.00;;;;;;;6.81;66.86;96035.79;108487;1266;25229;-73
2024/02/06 08:20:12;;;;;;;5.30;2.30;;;;;;;6.83;66.99;96036.04;108634;1274;24265;-74
2024/02/06 08:22:41;;;;;;;6.40;1.80;;;;;;;6.85;67.01;96038.24;108673;1272;23257;-73
2024/02/06 08:25:11;;;;;;;8.00;2.20;;;;;;;6.85;67.25;96041.24;108671;1271;22584;-74
2024/02/06 08:27:39;;;;;;;4.10;2.20;;;;;;;6.85;67.21;96032.88;108521;1270;24240;-74
2024/02/06 08:30:09;;;;;;;5.70;2.50;;;;;;;6.88;67.50;96032.95;108635;1266;22564;-74
2024/02/06 08:32:37;;;;;;;11.40;2.90;;;;;;;6.91;67.78;96039.45;108760;1266;22540;-73
2024/02/06 08:35:06;;;;;;;9.60;3.10;;;;;;;6.96;67.95;96030.67;108621;1272;22681;-73
2024/02/06 08:37:34;;;;;;;8.10;2.70;;;;;;;7.01;67.78;96030.44;108612;1268;22529;-73
2024/02/06 08:40:07;;;;;;;6.60;2.90;;;;;;;7.02;67.60;96033.55;108579;1274;22522;-73
2024/02/06 08:42:36;;;;;;;13.70;6.20;;;;;;;7.02;67.64;96031.85;108642;1273;22532;-73
2024/02/06 08:45:08;;;;;;;11.40;2.40;;;;;;;7.03;67.27;96036.07;108601;1272;23207;-73
2024/02/06 08:47:36;;;;;;;5.60;1.80;;;;;;;7.04;66.91;96027.35;108758;1274;22544;-73
2024/02/06 08:50:06;;;;;;;6.80;3.90;;;;;;;7.02;66.40;96033.65;108623;1274;25290;-74
2024/02/06 08:52:35;;;;;;;7.10;2.40;;;;;;;7.01;66.85;96036.55;108629;1272;26577;-73
2024/02/06 08:55:05;;;;;;;7.00;3.00;;;;;;;7.00;67.10;96039.20;108609;1274;22523;-74
2024/02/06 08:57:33;;;;;;;4.40;1.90;;;;;;;6.98;66.96;96036.04;108631;1271;22517;-73
2024/02/06 09:00:02;;;;;;;6.90;3.30;;;;;;;6.95;67.10;96040.80;108547;1267;22532;-73
2024/02/06 09:02:30;;;;;;;8.10;2.50;;;;;;;6.94;67.35;96045.92;108595;1273;22532;-73
2024/02/06 09:04:59;;;;;;;5.20;2.20;;;;;;;6.94;67.59;96041.55;108607;1273;22517;-73
2024/02/06 09:07:27;;;;;;;3.60;1.40;;;;;;;6.95;67.42;96041.55;108563;1270;22525;-73
2024/02/06 09:09:57;;;;;;;4.90;2.10;;;;;;;6.94;67.43;96046.98;108687;1272;22525;-73
2024/02/06 09:12:24;;;;;;;;;;;;;;;6.93;67.37;96047.56;108749;1271;22551;-73
2024/02/06 09:14:52;;;;;;;5.60;2.30;;;;;;;6.95;67.49;96048.13;108751;1271;25420;-73
2024/02/06 09:17:21;;;;;;;7.10;3.00;;;;;;;6.95;67.62;96052.92;108732;1272;25323;-73
2024/02/06 09:19:49;;;;;;;5.00;2.00;;;;;;;6.99;67.78;96054.06;108790;1273;22529;-73
2024/02/06 09:22:18;;;;;;;9.00;3.20;;;;;;;7.01;67.72;96050.26;108725;1272;22540;-73
2024/02/06 09:24:46;;;;;;;4.50;2.40;;;;;;;7.01;67.62;96057.10;108649;1267;22533;-72
2024/02/06 09:27:14;;;;;;;7.20;2.60;;;;;;;7.00;67.36;96049.73;108717;1272;22521;-73
2024/02/06 09:29:42;;;;;;;4.00;2.10;;;;;;;6.98;67.69;96057.18;108710;1273;22538;-73
2024/02/06 09:32:10;;;;;;;10.10;4.40;;;;;;;6.97;67.58;96059.55;108741;1267;43559;-73
2024/02/06 09:34:39;;;;;;;32.70;14.00;;;;;;;6.96;67.64;96063.94;108737;1273;22528;-72
2024/02/06 09:37:07;;;;;;;7.50;2.90;;;;;;;6.96;67.85;96068.20;108762;1273;22590;-73
2024/02/06 09:39:35;;;;;;;6.10;2.40;;;;;;;6.95;67.69;96062.84;108752;1273;22535;-74
2024/02/06 09:42:05;;;;;;;12.00;2.30;;;;;;;6.92;67.72;96062.85;108785;1273;22555;-73
2024/02/06 09:44:33;;;;;;;6.80;2.80;;;;;;;6.92;67.66;96066.33;108752;1266;22520;-73
2024/02/06 09:47:03;;;;;;;9.50;2.70;;;;;;;6.92;68.00;96069.54;108657;1273;24365;-73
2024/02/06 09:49:31;;;;;;;9.50;3.50;;;;;;;6.96;68.12;96072.52;108705;1272;22527;-73
2024/02/06 09:52:04;;;;;;;12.00;4.50;;;;;;;6.97;67.92;96074.52;108757;1263;22555;-73
2024/02/06 09:54:35;;;;;;;7.60;3.60;;;;;;;6.99;68.00;96068.98;108818;1272;22557;-73
2024/02/06 09:57:07;;;;;;;7.90;3.10;;;;;;;6.99;67.85;96071.51;108707;1273;25424;-73
2024/02/06 09:59:36;;;;;;;7.60;3.30;;;;;;;7.00;68.06;96074.82;108742;1273;22516;-73
2024/02/06 10:02:05;;;;;;;6.60;2.00;;;;;;;6.99;68.26;96075.62;108666;1273;22583;-73
2024/02/06 10:04:36;;;;;;;5.70;2.60;;;;;;;6.98;68.28;96076.25;108721;1273;22605;-73
2024/02/06 10:07:10;;;;;;;5.90;2.10;;;;;;;7.00;68.26;96074.88;108707;1273;22539;-73
2024/02/06 10:09:44;;;;;;;5.50;2.50;;;;;;;7.00;68.21;96076.14;108759;1271;23957;-73
2024/02/06 10:12:14;;;;;;;5.00;2.40;;;;;;;6.98;68.23;96078.63;108753;1273;22599;-73
2024/02/06 10:14:43;;;;;;;6.80;2.40;;;;;;;6.96;68.47;96086.39;108839;1273;22566;-73
2024/02/06 10:17:13;;;;;;;7.90;2.10;;;;;;;6.94;68.55;96089.61;108715;1266;22481;-73
2024/02/06 10:19:41;;;;;;;8.80;2.70;;;;;;;6.91;68.30;96079.76;108709;1273;22524;-73
2024/02/06 10:22:12;;;;;;;4.20;2.20;;;;;;;6.88;68.12;96081.75;108761;1273;25426;-73
2024/02/06 10:24:40;;;;;;;9.20;3.40;;;;;;;6.87;68.46;96078.59;108746;1266;22538;-74
2024/02/06 10:27:08;;;;;;;7.40;2.50;;;;;;;6.87;68.45;96075.59;108720;1270;25443;-73
2024/02/06 10:29:38;;;;;;;4.20;1.70;;;;;;;6.89;67.95;96072.69;108720;1269;22540;-74
2024/02/06 10:32:15;;;;;;;4.50;1.80;;;;;;;6.90;68.04;96078.60;108737;1273;22530;-74
2024/02/06 10:34:46;;;;;;;2.20;1.60;;;;;;;6.92;67.89;96074.17;108793;1269;22528;-73
2024/02/06 10:37:16;;;;;;;7.00;2.70;;;;;;;6.92;67.81;96079.08;108768;1272;22550;-73
2024/02/06 10:39:44;;;;;;;7.30;2.60;;;;;;;6.92;67.84;96081.14;108721;1271;22518;-73
2024/02/06 10:42:13;;;;;;;8.00;2.90;;;;;;;6.91;67.92;96078.88;108716;1273;23780;-73
2024/02/06 10:44:41;;;;;;;7.40;2.50;;;;;;;6.90;67.89;96074.55;108727;1273;22676;-73
2024/02/06 10:47:15;;;;;;;6.60;1.90;;;;;;;6.91;68.10;96071.17;108670;1272;22557;-73
2024/02/06 10:49:43;;;;;;;5.20;2.10;;;;;;;6.91;67.84;96070.08;108653;1266;22540;-73
2024/02/06 10:52:12;;;;;;;6.70;2.80;;;;;;;6.91;67.48;96063.59;108724;1273;26485;-73
2024/02/06 10:54:40;;;;;;;9.40;3.40;;;;;;;6.93;67.69;96069.59;108760;1267;22554;-73
2024/02/06 10:57:10;;;;;;;10.60;2.90;;;;;;;6.98;67.96;96070.67;108760;1272;22626;-73
2024/02/06 10:59:46;;;;;;;4.80;1.80;;;;;;;7.05;67.89;96065.44;108683;1273;24244;-73
2024/02/06 11:02:23;;;;;;;5.80;2.40;;;;;;;7.10;68.05;96068.05;108769;1269;24186;-73
2024/02/06 11:04:58;;;;;;;8.10;3.10;;;;;;;7.17;67.95;96065.55;108731;1271;22535;-73
2024/02/06 11:07:29;;;;;;;5.90;2.30;;;;;;;7.20;67.89;96069.14;108809;1273;22525;-73
2024/02/06 11:10:01;;;;;;;6.40;2.30;;;;;;;7.18;67.13;96055.48;108760;1274;23024;-73
2024/02/06 11:12:30;;;;;;;4.00;1.70;;;;;;;7.23;67.32;96055.62;108475;1266;23385;-73
2024/02/06 11:15:02;;;;;;;6.50;2.50;;;;;;;7.31;66.79;96055.20;108641;1270;22596;-73
2024/02/06 11:17:32;;;;;;;7.30;2.50;;;;;;;7.33;66.37;96055.38;108617;1273;25401;-73
2024/02/06 11:20:05;;;;;;;5.80;2.20;;;;;;;7.33;66.25;96060.42;108663;1272;22545;-73
2024/02/06 11:22:36;;;;;;;4.20;2.20;;;;;;;7.43;66.81;96052.95;108702;1273;37159;-73
2024/02/06 11:25:08;;;;;;;5.40;2.10;;;;;;;7.75;66.67;96055.98;108795;1274;22523;-74
2024/02/06 11:27:38;;;;;;;8.50;2.90;;;;;;;8.02;66.39;96051.43;108838;1274;22630;-73
2024/02/06 11:30:11;;;;;;;6.10;2.10;;;;;;;8.08;65.75;96053.08;108772;1274;22623;-73
2024/02/06 11:32:40;;;;;;;6.30;2.60;;;;;;;7.97;64.84;96050.57;108862;1274;22629;-73
2024/02/06 11:35:09;;;;;;;6.70;2.00;;;;;;;7.94;65.59;96048.69;108769;1272;22531;-73
2024/02/06 11:37:37;;;;;;;5.60;2.70;;;;;;;8.02;65.39;96042.92;108767;1274;22527;-73
2024/02/06 11:40:08;;;;;;;4.80;1.90;;;;;;;8.10;65.08;96043.34;108752;1274;22516;-73
2024/02/06 11:42:38;;;;;;;5.50;2.10;;;;;;;8.06;64.94;96039.95;108911;1273;22632;-74